Fort Worth Alliance Airport Fort Worth US
ICAO: KAFW
IATA: AFW
Category: Large
Scheduled Services: No

Elevation: 722 ft
TransAlt. 18000 ft.

Airport Communications:
RGNL APP/DEP:118.1
ASOS:126.925
ATIS:126.925
CLNC DEL:128.725
GND:132.65
ALLIANCE TWR:120.825

KAFW Zoom In..

Runways:

(A) RW 16L length 9600 ft width 150 ft
ILS 110.15 / hdg 163

(B) RW 16R length 8220 ft width 150 ft
---- / hdg 163

(C) RW 34L length 8220 ft width 150 ft
---- / hdg 343

(D) RW 34R length 9600 ft width 150 ft
ILS 110.15 / hdg 343

Location; KAFW
Day. 23 / Time. 14.53 Zulu
* Altimeter: 30.28
* Temperature: 03° c. 37.4°f.
* Wind from: 300° Speed 09 kn.
Dewpoint: -07° c.
Visibility: 10 Statute Miles.
Clouds: Broken 25000 ft.

KAFW 231453Z 30009KT 10SM BKN250 03/M07 A3028 RMK AO2 SLP265 T00331067 53026 $


Wind From 300°
Speed 09 kn.

YouTube Music Video
 
jpsmedia.com for Web Design  worldairports.se 2018   terms of use